createdAt,value
2023-04-16T00:02:05.907Z,49.85
2023-04-16T00:04:33.179Z,50.83
2023-04-16T00:07:00.318Z,55.42
2023-04-16T00:09:27.338Z,50.63
2023-04-16T00:11:54.734Z,48.63
2023-04-16T00:14:22.258Z,49.28
2023-04-16T00:16:49.546Z,49.35
2023-04-16T00:19:16.636Z,47.13
2023-04-16T00:21:43.812Z,48.92
2023-04-16T00:24:10.882Z,44.60
2023-04-16T00:26:37.931Z,48.08
2023-04-16T00:29:05.067Z,48.00
2023-04-16T00:31:33.932Z,50.25
2023-04-16T00:34:03.621Z,45.75
2023-04-16T00:36:30.753Z,45.60
2023-04-16T00:38:57.815Z,39.85
2023-04-16T00:41:24.926Z,46.58
2023-04-16T00:43:52.398Z,43.50
2023-04-16T00:46:22.021Z,42.90
2023-04-16T00:48:51.131Z,50.20
2023-04-16T00:51:20.870Z,44.30
2023-04-16T00:53:48.248Z,44.20
2023-04-16T00:56:17.524Z,43.83
2023-04-16T00:58:45.248Z,45.15
2023-04-16T01:01:14.680Z,41.58
2023-04-16T01:03:48.129Z,40.75
2023-04-16T01:06:17.256Z,44.03
2023-04-16T01:08:45.447Z,44.88
2023-04-16T01:11:14.427Z,49.72
2023-04-16T01:13:41.763Z,48.60
2023-04-16T01:16:10.613Z,47.45
2023-04-16T01:18:38.914Z,55.75
2023-04-16T01:21:06.237Z,46.13
2023-04-16T01:23:33.385Z,53.22
2023-04-16T01:26:00.685Z,52.40
2023-04-16T01:28:27.877Z,53.95
2023-04-16T01:30:55.088Z,53.08
2023-04-16T01:33:42.756Z,56.35
2023-04-16T01:36:12.050Z,48.13
2023-04-16T01:38:39.103Z,53.30
2023-04-16T01:41:06.153Z,52.30
2023-04-16T01:43:33.263Z,56.17
2023-04-16T01:46:19.062Z,55.70
2023-04-16T01:48:47.257Z,63.20
2023-04-16T01:51:14.460Z,48.20
2023-04-16T01:53:41.543Z,54.95
2023-04-16T01:56:08.793Z,47.95
2023-04-16T01:58:36.318Z,57.65
2023-04-16T02:01:04.638Z,49.13
2023-04-16T02:03:32.657Z,52.40
2023-04-16T02:06:01.303Z,43.30
2023-04-16T02:08:29.361Z,49.40
2023-04-16T02:10:57.615Z,46.22
2023-04-16T02:13:26.278Z,38.00
2023-04-16T02:15:54.260Z,42.97
2023-04-16T02:18:32.312Z,40.60
2023-04-16T02:21:00.559Z,44.17
2023-04-16T02:23:27.693Z,41.72
2023-04-16T02:25:56.884Z,40.72
2023-04-16T02:28:24.017Z,34.47
2023-04-16T02:30:51.206Z,34.22
2023-04-16T02:33:20.348Z,36.28
2023-04-16T02:35:57.700Z,33.10
2023-04-16T02:38:24.818Z,36.97
2023-04-16T02:40:51.978Z,32.75
2023-04-16T02:43:18.982Z,37.03
2023-04-16T02:45:46.286Z,31.45
2023-04-16T02:48:13.501Z,27.52
2023-04-16T02:50:40.910Z,28.90
2023-04-16T02:53:08.210Z,26.58
2023-04-16T02:55:35.221Z,27.75
2023-04-16T02:58:02.371Z,25.33
2023-04-16T03:00:29.440Z,24.10
2023-04-16T03:02:56.532Z,25.00
2023-04-16T03:05:23.641Z,26.70
2023-04-16T03:07:56.436Z,22.67
2023-04-16T03:10:24.107Z,25.58
2023-04-16T03:12:51.246Z,26.45
2023-04-16T03:15:18.134Z,30.70
2023-04-16T03:17:44.987Z,27.15
2023-04-16T03:20:12.174Z,34.00
2023-04-16T03:22:39.717Z,31.83
2023-04-16T03:25:07.958Z,27.92
2023-04-16T03:27:35.160Z,32.22
2023-04-16T03:30:02.573Z,32.38
2023-04-16T03:32:30.410Z,35.05
2023-04-16T03:34:57.471Z,34.47
2023-04-16T03:37:24.553Z,37.63
2023-04-16T03:39:51.626Z,41.42
2023-04-16T03:42:18.469Z,41.70
2023-04-16T03:44:45.725Z,39.63
2023-04-16T03:47:13.784Z,39.53
2023-04-16T03:49:40.785Z,41.53
2023-04-16T03:52:07.905Z,44.33
2023-04-16T03:54:34.716Z,40.10
2023-04-16T03:57:13.545Z,46.33
2023-04-16T03:59:40.849Z,41.10
2023-04-16T04:02:08.171Z,43.08
2023-04-16T04:04:35.457Z,48.88
2023-04-16T04:07:03.262Z,38.95
2023-04-16T04:09:30.471Z,42.85
2023-04-16T04:11:57.586Z,40.50
2023-04-16T04:14:24.785Z,44.42
2023-04-16T04:16:51.987Z,41.38
2023-04-16T04:19:19.049Z,45.45
2023-04-16T04:21:46.317Z,44.70
2023-04-16T04:24:13.953Z,39.35
2023-04-16T04:26:41.061Z,41.67
2023-04-16T04:29:08.403Z,39.90
2023-04-16T04:31:36.090Z,41.35
2023-04-16T04:34:03.353Z,39.58
2023-04-16T04:36:31.155Z,40.58
2023-04-16T04:38:58.760Z,43.63
2023-04-16T04:41:27.128Z,44.97
2023-04-16T04:43:54.425Z,37.88
2023-04-16T04:46:21.871Z,44.85
2023-04-16T04:48:50.681Z,44.38
2023-04-16T04:51:17.879Z,46.67
2023-04-16T04:53:47.126Z,46.60
2023-04-16T04:56:14.288Z,42.63
2023-04-16T04:58:42.066Z,44.55
2023-04-16T05:01:09.449Z,49.10
2023-04-16T05:03:36.702Z,44.00
2023-04-16T05:06:03.987Z,49.97
2023-04-16T05:08:31.139Z,46.60
2023-04-16T05:10:58.341Z,48.20
2023-04-16T05:13:25.383Z,47.47
2023-04-16T05:15:52.493Z,51.90
2023-04-16T05:18:19.612Z,46.38
2023-04-16T05:20:46.800Z,59.10
2023-04-16T05:23:15.685Z,54.00
2023-04-16T05:25:42.788Z,62.92
2023-04-16T05:28:10.811Z,60.95
2023-04-16T05:30:38.026Z,63.85
2023-04-16T05:33:05.241Z,53.42
2023-04-16T05:35:32.417Z,58.88
2023-04-16T05:37:59.438Z,53.28
2023-04-16T05:40:27.198Z,55.08
2023-04-16T05:42:54.274Z,56.65
2023-04-16T05:45:21.482Z,56.45
2023-04-16T05:47:48.774Z,51.33
2023-04-16T05:50:16.133Z,52.72
2023-04-16T05:52:43.236Z,52.97
2023-04-16T05:55:10.608Z,50.20
2023-04-16T05:57:37.662Z,61.60
2023-04-16T06:00:05.295Z,49.70
2023-04-16T06:02:39.475Z,50.85
2023-04-16T06:05:06.867Z,53.33
2023-04-16T06:07:34.052Z,60.10
2023-04-16T06:10:01.143Z,55.63
2023-04-16T06:12:28.380Z,52.70
2023-04-16T06:14:55.463Z,52.17
2023-04-16T06:17:23.085Z,57.47
2023-04-16T06:19:50.352Z,56.05
2023-04-16T06:22:17.746Z,57.58
2023-04-16T06:24:44.753Z,56.20
2023-04-16T06:27:12.208Z,54.75
2023-04-16T06:29:41.434Z,56.70
2023-04-16T06:32:08.994Z,62.00
2023-04-16T06:34:36.256Z,54.25
2023-04-16T06:37:03.239Z,57.67
2023-04-16T06:39:30.300Z,59.25
2023-04-16T06:41:57.560Z,56.05
2023-04-16T06:44:24.421Z,55.78
2023-04-16T06:46:51.597Z,61.05
2023-04-16T06:49:18.446Z,57.78
2023-04-16T06:51:45.567Z,64.90
2023-04-16T06:54:12.459Z,60.72
2023-04-16T06:56:39.536Z,72.38
2023-04-16T06:59:07.850Z,61.15
2023-04-16T07:01:35.757Z,66.75
2023-04-16T07:04:03.703Z,65.13
2023-04-16T07:06:31.964Z,65.60
2023-04-16T07:08:58.946Z,61.75
2023-04-16T07:11:26.634Z,65.90
2023-04-16T07:13:53.947Z,67.78
2023-04-16T07:16:21.021Z,61.15
2023-04-16T07:18:48.089Z,61.53
2023-04-16T07:21:15.219Z,56.90
2023-04-16T07:23:43.109Z,57.28
2023-04-16T07:26:11.695Z,55.15
2023-04-16T07:28:38.716Z,51.50
2023-04-16T07:31:05.857Z,52.67
2023-04-16T07:33:32.843Z,49.80
2023-04-16T07:35:59.807Z,53.65
2023-04-16T07:38:26.752Z,50.33
2023-04-16T07:40:55.040Z,50.90
2023-04-16T07:43:22.473Z,46.60
2023-04-16T07:45:49.748Z,51.38
2023-04-16T07:48:16.905Z,51.38
2023-04-16T07:50:44.877Z,47.47
2023-04-16T07:53:12.605Z,48.15
2023-04-16T07:55:40.488Z,49.88
2023-04-16T07:58:09.827Z,44.45
2023-04-16T08:00:37.474Z,52.90
2023-04-16T08:03:05.122Z,44.28
2023-04-16T08:05:32.569Z,43.13
2023-04-16T08:07:59.560Z,46.42
2023-04-16T08:10:28.099Z,48.15
2023-04-16T08:12:55.392Z,51.30
2023-04-16T08:15:23.381Z,42.25
2023-04-16T08:17:51.237Z,41.85
2023-04-16T08:20:19.341Z,41.20
2023-04-16T08:22:47.046Z,42.53
2023-04-16T08:25:15.070Z,41.28
2023-04-16T08:27:42.620Z,42.20
2023-04-16T08:30:10.882Z,36.90
2023-04-16T08:32:38.981Z,44.85
2023-04-16T08:35:07.769Z,43.22
2023-04-16T08:37:34.936Z,40.97
2023-04-16T08:40:02.876Z,40.40
2023-04-16T08:42:45.902Z,39.25
2023-04-16T08:45:18.398Z,34.78
2023-04-16T08:47:51.450Z,39.47
2023-04-16T08:50:27.152Z,36.75
2023-04-16T08:53:01.651Z,37.58
2023-04-16T08:55:57.164Z,41.70
2023-04-16T08:58:32.123Z,39.63
2023-04-16T09:00:59.790Z,36.88
2023-04-16T09:03:29.955Z,39.40
2023-04-16T09:05:59.880Z,42.50
2023-04-16T09:08:28.157Z,46.58
2023-04-16T09:10:57.050Z,41.58
2023-04-16T09:13:24.893Z,41.53
2023-04-16T09:15:57.279Z,42.13
2023-04-16T09:18:26.070Z,38.85
2023-04-16T09:20:53.367Z,48.25
2023-04-16T09:23:20.672Z,40.47
2023-04-16T09:25:48.116Z,45.35
2023-04-16T09:28:46.172Z,37.17
2023-04-16T09:31:18.017Z,42.40
2023-04-16T09:34:08.925Z,42.03
2023-04-16T09:36:36.913Z,46.35
2023-04-16T09:39:04.319Z,39.75
2023-04-16T09:41:33.316Z,46.92
2023-04-16T09:44:05.192Z,46.72
2023-04-16T09:46:36.405Z,41.17
2023-04-16T09:49:10.817Z,44.42
2023-04-16T09:51:41.788Z,43.60
2023-04-16T09:54:10.019Z,40.13
2023-04-16T09:56:42.865Z,44.22
2023-04-16T09:59:18.123Z,40.85
2023-04-16T10:01:49.426Z,42.80
2023-04-16T10:04:17.572Z,47.20
2023-04-16T10:06:48.536Z,40.17
2023-04-16T10:09:15.791Z,49.83
2023-04-16T10:11:43.336Z,51.72
2023-04-16T10:14:10.257Z,48.58
2023-04-16T10:16:40.130Z,49.90
2023-04-16T10:19:07.106Z,56.30
2023-04-16T10:21:34.676Z,53.17
2023-04-16T10:24:01.918Z,51.17
2023-04-16T10:26:31.358Z,50.08
2023-04-16T10:29:00.596Z,50.33
2023-04-16T10:31:29.616Z,49.15
2023-04-16T10:33:59.169Z,53.42
2023-04-16T10:36:26.725Z,55.00
2023-04-16T10:38:58.870Z,55.13
2023-04-16T10:41:29.602Z,55.15
2023-04-16T10:44:09.957Z,50.50
2023-04-16T10:46:41.715Z,52.22
2023-04-16T10:49:20.209Z,47.42
2023-04-16T10:51:53.376Z,53.30
2023-04-16T10:54:25.548Z,48.97
2023-04-16T10:56:55.952Z,49.58
2023-04-16T11:01:56.689Z,55.25
2023-04-16T11:04:24.765Z,54.47
2023-04-16T11:07:20.160Z,60.35
2023-04-16T11:09:59.644Z,52.60
2023-04-16T11:12:35.812Z,51.00
2023-04-16T11:15:10.280Z,55.22
2023-04-16T11:17:43.468Z,47.92
2023-04-16T11:20:20.897Z,48.72
2023-04-16T11:22:58.716Z,56.05
2023-04-16T11:25:30.428Z,56.33
2023-04-16T11:27:59.336Z,54.90
2023-04-16T11:30:35.576Z,61.60
2023-04-16T11:33:09.472Z,49.67
2023-04-16T11:35:37.046Z,53.25
2023-04-16T11:38:06.225Z,54.38
2023-04-16T11:40:36.045Z,48.35
2023-04-16T11:43:17.159Z,52.03
2023-04-16T11:46:20.081Z,49.83
2023-04-16T11:48:56.872Z,55.30
2023-04-16T11:51:24.242Z,56.67
2023-04-16T11:53:56.176Z,51.28
2023-04-16T11:56:30.688Z,56.53
2023-04-16T11:59:18.945Z,50.65
2023-04-16T12:01:51.580Z,62.08
2023-04-16T12:04:26.951Z,49.95
2023-04-16T12:07:13.348Z,51.63
2023-04-16T12:09:42.411Z,59.67
2023-04-16T12:12:31.936Z,60.00
2023-04-16T12:15:03.175Z,54.67
2023-04-16T12:17:34.939Z,55.92
2023-04-16T12:20:06.879Z,59.42
2023-04-16T12:22:37.394Z,56.85
2023-04-16T12:25:07.175Z,54.20
2023-04-16T12:27:47.020Z,61.38
2023-04-16T12:30:15.725Z,53.92
2023-04-16T12:32:44.733Z,69.65
2023-04-16T12:35:12.550Z,64.97
2023-04-16T12:37:41.768Z,58.53
2023-04-16T12:40:09.648Z,54.22
2023-04-16T12:42:40.489Z,62.10
2023-04-16T12:45:08.378Z,52.63
2023-04-16T12:47:36.717Z,55.95
2023-04-16T12:50:03.916Z,54.42
2023-04-16T12:52:31.850Z,57.58
2023-04-16T12:54:59.060Z,58.45
2023-04-16T12:57:28.873Z,60.47
2023-04-16T13:00:00.411Z,54.17
2023-04-16T13:02:28.430Z,58.40
2023-04-16T13:04:55.545Z,50.88
2023-04-16T13:07:22.515Z,63.28
2023-04-16T13:09:49.375Z,57.78
2023-04-16T13:12:16.535Z,50.42
2023-04-16T13:14:45.040Z,58.78
2023-04-16T13:17:12.061Z,58.42
2023-04-16T13:19:38.895Z,53.75
2023-04-16T13:22:05.864Z,58.35
2023-04-16T13:24:32.738Z,51.38
2023-04-16T13:26:59.775Z,54.03
2023-04-16T13:29:27.137Z,52.33
2023-04-16T13:31:54.524Z,46.38
2023-04-16T13:34:21.746Z,43.30
2023-04-16T13:36:49.010Z,45.75
2023-04-16T13:39:15.970Z,49.70
2023-04-16T13:41:43.374Z,40.63
2023-04-16T13:44:10.303Z,45.33
2023-04-16T13:46:37.267Z,40.47
2023-04-16T13:49:04.174Z,48.13
2023-04-16T13:51:32.099Z,45.20
2023-04-16T13:53:59.001Z,42.60
2023-04-16T13:56:26.100Z,46.33
2023-04-16T13:58:53.374Z,39.47
2023-04-16T14:01:20.597Z,35.42
2023-04-16T14:03:47.582Z,38.15
2023-04-16T14:06:15.132Z,33.65
2023-04-16T14:08:42.147Z,36.40
2023-04-16T14:11:09.467Z,34.25
2023-04-16T14:13:37.328Z,36.45
2023-04-16T14:16:05.087Z,37.45
2023-04-16T14:18:32.228Z,34.00
2023-04-16T14:21:02.120Z,37.25
2023-04-16T14:23:29.270Z,36.72
2023-04-16T14:25:56.915Z,36.45
2023-04-16T14:28:23.998Z,36.63
2023-04-16T14:30:51.003Z,32.63
2023-04-16T14:33:18.338Z,30.48
2023-04-16T14:35:45.514Z,34.92
2023-04-16T14:38:12.669Z,29.00
2023-04-16T14:40:40.840Z,35.05
2023-04-16T14:43:07.993Z,32.45
2023-04-16T14:45:35.215Z,30.08
2023-04-16T14:48:02.323Z,30.52
2023-04-16T14:50:29.236Z,29.70
2023-04-16T14:52:56.262Z,29.77
2023-04-16T14:55:23.230Z,29.98
2023-04-16T14:57:50.193Z,31.35
2023-04-16T15:00:18.721Z,30.48
2023-04-16T15:02:47.239Z,28.05
2023-04-16T15:05:14.469Z,23.48
2023-04-16T15:07:41.479Z,27.80
2023-04-16T15:10:10.235Z,22.42
2023-04-16T15:12:41.891Z,21.27
2023-04-16T15:15:09.631Z,22.17
2023-04-16T15:17:36.809Z,17.50
2023-04-16T15:20:08.885Z,14.98
2023-04-16T15:22:36.819Z,17.10
2023-04-16T15:25:05.906Z,16.42
2023-04-16T15:27:34.274Z,18.17
2023-04-16T15:30:04.230Z,14.70
2023-04-16T15:32:32.158Z,16.10
2023-04-16T15:35:03.693Z,16.65
2023-04-16T15:37:34.171Z,18.02
2023-04-16T15:40:01.319Z,18.02
2023-04-16T15:42:28.457Z,18.70
2023-04-16T15:44:55.387Z,14.40
2023-04-16T15:47:22.373Z,17.17
2023-04-16T15:49:49.547Z,17.42
2023-04-16T15:52:21.010Z,16.40
2023-04-16T15:54:49.632Z,16.63
2023-04-16T15:57:16.755Z,16.13
2023-04-16T15:59:52.862Z,17.17
2023-04-16T16:02:32.543Z,19.20
2023-04-16T16:05:00.813Z,18.30
2023-04-16T16:07:29.384Z,15.15
2023-04-16T16:09:58.475Z,16.58
2023-04-16T16:12:25.806Z,14.18
2023-04-16T16:14:53.285Z,21.50
2023-04-16T16:17:20.646Z,17.85
2023-04-16T16:19:48.636Z,19.15
2023-04-16T16:22:20.398Z,22.25
2023-04-16T16:24:53.805Z,20.20
2023-04-16T16:27:21.148Z,35.33
2023-04-16T16:29:48.551Z,33.95
2023-04-16T16:32:16.501Z,25.33
2023-04-16T16:34:43.514Z,21.05
2023-04-16T16:37:10.699Z,24.05
2023-04-16T16:39:38.924Z,29.70
2023-04-16T16:42:07.320Z,21.90
2023-04-16T16:44:34.800Z,21.20
2023-04-16T16:47:01.991Z,27.15
2023-04-16T16:49:29.281Z,25.08
2023-04-16T16:51:57.679Z,24.17
2023-04-16T16:54:25.008Z,31.27
2023-04-16T16:56:52.961Z,29.13
2023-04-16T16:59:21.215Z,30.88
2023-04-16T17:01:49.565Z,26.13
2023-04-16T17:04:20.022Z,24.80
2023-04-16T17:06:47.852Z,26.95
2023-04-16T17:09:14.922Z,26.63
2023-04-16T17:11:41.896Z,23.65
2023-04-16T17:14:08.776Z,25.50
2023-04-16T17:16:35.983Z,24.70
2023-04-16T17:19:03.608Z,25.88
2023-04-16T17:21:33.483Z,28.13
2023-04-16T17:24:00.673Z,28.52
2023-04-16T17:26:27.741Z,28.60
2023-04-16T17:28:56.876Z,29.92
2023-04-16T17:31:26.851Z,27.08
2023-04-16T17:33:54.502Z,30.15
2023-04-16T17:36:23.015Z,32.80
2023-04-16T17:38:50.682Z,34.42
2023-04-16T17:41:17.566Z,33.13
2023-04-16T17:43:46.831Z,30.92
2023-04-16T17:46:13.932Z,33.85
2023-04-16T17:48:41.112Z,32.55
2023-04-16T17:51:12.000Z,35.72
2023-04-16T17:53:39.050Z,32.88
2023-04-16T17:56:06.735Z,28.73
2023-04-16T17:58:35.362Z,35.17
2023-04-16T18:01:03.523Z,33.20
2023-04-16T18:03:31.522Z,33.45
2023-04-16T18:05:59.355Z,33.55
2023-04-16T18:08:26.888Z,37.03
2023-04-16T18:10:55.350Z,32.33
2023-04-16T18:13:25.784Z,33.67
2023-04-16T18:15:53.043Z,34.28
2023-04-16T18:18:21.369Z,33.00
2023-04-16T18:20:48.506Z,41.13
2023-04-16T18:23:18.590Z,32.20
2023-04-16T18:25:48.830Z,33.00
2023-04-16T18:28:17.618Z,32.50
2023-04-16T18:30:45.315Z,33.58
2023-04-16T18:33:42.735Z,39.28
2023-04-16T18:36:02.312Z,32.90
2023-04-16T18:38:32.035Z,33.65
2023-04-16T18:41:01.045Z,38.47
2023-04-16T18:43:28.566Z,32.95
2023-04-16T18:48:45.323Z,33.63
2023-04-16T18:51:14.209Z,30.38
2023-04-16T18:53:44.351Z,36.03
2023-04-16T18:56:11.911Z,34.30
2023-04-16T18:58:41.744Z,31.70
2023-04-16T19:01:14.026Z,30.40
2023-04-16T19:03:43.766Z,31.10
2023-04-16T19:06:26.067Z,30.92
2023-04-16T19:08:53.044Z,39.65
2023-04-16T19:11:21.119Z,37.50
2023-04-16T19:13:48.365Z,34.63
2023-04-16T19:16:15.836Z,32.25
2023-04-16T19:18:42.984Z,34.42
2023-04-16T19:21:10.989Z,39.60
2023-04-16T19:23:41.205Z,32.90
2023-04-16T19:26:08.537Z,35.95
2023-04-16T19:28:35.831Z,35.08
2023-04-16T19:31:02.926Z,38.08
2023-04-16T19:33:31.403Z,34.95
2023-04-16T19:35:58.721Z,35.55
2023-04-16T19:38:26.660Z,35.78
2023-04-16T19:40:53.544Z,34.17
2023-04-16T19:43:20.572Z,37.42
2023-04-16T19:45:53.439Z,36.50
2023-04-16T19:48:20.875Z,40.50
2023-04-16T19:50:48.323Z,39.90
2023-04-16T19:53:17.162Z,37.20
2023-04-16T19:55:44.138Z,41.03
2023-04-16T19:58:11.161Z,48.47
2023-04-16T20:00:42.542Z,41.90
2023-04-16T20:03:09.778Z,38.47
2023-04-16T20:05:36.692Z,44.78
2023-04-16T20:11:13.931Z,42.60
2023-04-16T20:13:41.112Z,40.65
2023-04-16T20:16:09.307Z,43.72
2023-04-16T20:18:41.625Z,43.92
2023-04-16T20:21:09.640Z,46.22
2023-04-16T20:23:37.056Z,48.72
2023-04-16T20:26:04.482Z,40.42
2023-04-16T20:28:31.506Z,40.40
2023-04-16T20:30:58.633Z,42.53
2023-04-16T20:33:25.614Z,40.72
2023-04-16T20:35:52.531Z,38.03
2023-04-16T20:38:23.811Z,35.45
2023-04-16T20:41:10.091Z,36.00
2023-04-16T20:43:44.202Z,39.92
2023-04-16T20:46:12.027Z,41.28
2023-04-16T20:48:39.305Z,39.90
2023-04-16T20:51:07.851Z,43.17
2023-04-16T20:53:35.328Z,39.70
2023-04-16T20:56:02.382Z,39.13
2023-04-16T20:58:29.819Z,42.50
2023-04-16T21:00:57.502Z,44.33
2023-04-16T21:03:25.202Z,44.85
2023-04-16T21:05:54.308Z,47.50
2023-04-16T21:08:22.427Z,40.45
2023-04-16T21:10:50.472Z,40.20
2023-04-16T21:13:17.437Z,39.88
2023-04-16T21:15:45.154Z,37.95
2023-04-16T21:18:12.553Z,39.00
2023-04-16T21:20:39.846Z,43.83
2023-04-16T21:23:06.795Z,45.78
2023-04-16T21:25:33.672Z,39.17
2023-04-16T21:28:00.598Z,47.45
2023-04-16T21:30:27.541Z,39.65
2023-04-16T21:32:54.908Z,43.60
2023-04-16T21:35:21.797Z,47.75
2023-04-16T21:37:48.636Z,43.85
2023-04-16T21:40:15.567Z,47.67
2023-04-16T21:42:42.578Z,43.35
2023-04-16T21:45:10.481Z,39.88
2023-04-16T21:47:38.219Z,40.10
2023-04-16T21:50:05.837Z,43.83
2023-04-16T21:52:33.124Z,37.58
2023-04-16T21:55:00.534Z,45.08
2023-04-16T21:57:27.476Z,43.22
2023-04-16T21:59:54.325Z,38.97
2023-04-16T22:02:21.356Z,35.72
2023-04-16T22:04:48.708Z,38.40
2023-04-16T22:07:16.863Z,34.00
2023-04-16T22:09:43.935Z,40.03
2023-04-16T22:12:10.828Z,35.25
2023-04-16T22:14:44.120Z,36.80
2023-04-16T22:17:17.170Z,37.92
2023-04-16T22:19:44.603Z,40.92
2023-04-16T22:22:11.429Z,42.80
2023-04-16T22:24:38.203Z,38.20
2023-04-16T22:27:05.066Z,34.55
2023-04-16T22:29:31.968Z,37.80
2023-04-16T22:32:00.760Z,32.90
2023-04-16T22:34:27.607Z,38.08
2023-04-16T22:36:54.431Z,39.92
2023-04-16T22:39:21.486Z,34.63
2023-04-16T22:41:48.425Z,30.13
2023-04-16T22:44:15.756Z,36.97
2023-04-16T22:46:42.577Z,38.17
2023-04-16T22:49:09.403Z,32.53
2023-04-16T22:51:36.276Z,36.70
2023-04-16T22:54:03.072Z,31.30
2023-04-16T22:56:31.083Z,33.38
2023-04-16T22:58:57.962Z,33.65
2023-04-16T23:01:25.376Z,35.08
2023-04-16T23:03:52.665Z,34.65
2023-04-16T23:06:19.483Z,31.73
2023-04-16T23:08:46.553Z,35.33
2023-04-16T23:11:13.346Z,34.25
2023-04-16T23:13:40.282Z,34.85
2023-04-16T23:16:07.839Z,31.88
2023-04-16T23:18:34.821Z,31.20
2023-04-16T23:21:01.636Z,33.60
2023-04-16T23:23:28.469Z,39.03
2023-04-16T23:25:55.295Z,37.15
2023-04-16T23:28:22.401Z,30.00
2023-04-16T23:30:55.361Z,36.15
2023-04-16T23:33:22.289Z,36.85
2023-04-16T23:35:49.288Z,38.22
2023-04-16T23:38:16.247Z,36.80
2023-04-16T23:40:43.139Z,38.05
2023-04-16T23:43:10.673Z,29.67
2023-04-16T23:45:37.569Z,32.17
2023-04-16T23:48:04.560Z,34.83
2023-04-16T23:50:31.457Z,36.13
2023-04-16T23:52:58.308Z,31.83
2023-04-16T23:55:25.390Z,35.28
2023-04-16T23:57:52.221Z,36.38
